Data for 02/06/2014

Time Sea-Level Adjusted Pressure Absolute Pressure Temperature Relative Humidity Dew Point   
(mb) (inHg) (mb) (inHg) (C) (F) (%) (C) (F)
00:05 1025 30.27 854 25.22 -27.7 -17.9 63 -32.8 -27.1
00:10 1025 30.27 854 25.22 -27.6 -17.8 63 -32.7 -26.8
00:15 1025 30.27 854 25.22 -27.7 -17.9 62 -32.9 -27.2
00:20 1025 30.27 854 25.22 -27.8 -18.1 63 -32.8 -27
00:25 1025 30.27 854 25.22 -28 -18.3 64 -32.9 -27.2
00:30 1025 30.27 854 25.22 -28.1 -18.7 65 -32.9 -27.2
00:35 1025 30.27 854 25.22 -28.3 -18.9 66 -32.9 -27.1
00:40 1024 30.24 854 25.22 -28.3 -18.9 65 -32.9 -27.2
00:45 1024 30.24 854 25.22 -28.4 -19.1 65 -33 -27.5
00:50 1024 30.24 854 25.22 -28.4 -19.1 65 -33.1 -27.5
00:55 1024 30.24 854 25.22 -28.3 -19 65 -33.1 -27.6
01:00 1024 30.24 854 25.22 -28.4 -19.1 65 -33.1 -27.6
01:05 1024 30.24 854 25.22 -28.4 -19.2 65 -33.1 -27.6
01:10 1024 30.24 853 25.19 -28.5 -19.3 66 -32.9 -27.3
01:15 1024 30.24 853 25.19 -28.7 -19.7 66 -33.2 -27.8
01:20 1024 30.24 853 25.19 -28.9 -19.9 66 -33.3 -28
01:25 1024 30.24 853 25.19 -29 -20.3 66 -33.5 -28.3
01:30 1024 30.24 853 25.19 -29 -20.1 65 -33.7 -28.6
01:35 1024 30.24 853 25.19 -29 -20.2 64 -33.9 -29
01:40 1024 30.24 853 25.19 -28.8 -19.9 64 -33.7 -28.6
01:45 1024 30.24 853 25.19 -28.7 -19.6 62 -33.8 -28.8
01:50 1024 30.24 853 25.19 -28.9 -20.1 64 -33.8 -28.8
01:55 1024 30.24 853 25.19 -28.9 -20.1 64 -33.8 -28.8
02:00 1024 30.24 853 25.19 -28.9 -20 64 -33.7 -28.7
02:05 1024 30.24 853 25.19 -28.8 -19.8 64 -33.7 -28.6
02:10 1024 30.24 853 25.19 -28.8 -19.8 63 -33.8 -28.8
02:15 1024 30.24 853 25.19 -28.9 -20.1 63 -33.9 -29
02:20 1024 30.24 853 25.19 -29 -20.1 67 -33.3 -27.9
02:25 1023 30.21 853 25.19 -28.8 -19.9 67 -33.2 -27.8
02:30 1023 30.21 853 25.19 -28.9 -20.1 63 -33.9 -29
02:35 1023 30.21 853 25.19 -29.2 -20.5 63 -34.2 -29.5
02:40 1023 30.21 853 25.19 -29.2 -20.5 64 -33.9 -29.1
02:45 1023 30.21 853 25.19 -29.2 -20.5 62 -34.2 -29.6
02:50 1023 30.21 853 25.19 -29.2 -20.5 63 -34.2 -29.6
02:55 1023 30.21 852 25.16 -29.2 -20.6 62 -34.3 -29.8
03:00 1023 30.21 852 25.16 -29.4 -20.9 63 -34.3 -29.8
03:05 1023 30.21 852 25.16 -29.3 -20.7 62 -34.4 -30
03:10 1023 30.21 852 25.16 -29.2 -20.5 63 -34.2 -29.6
03:15 1023 30.21 852 25.16 -29.2 -20.5 64 -34 -29.1
03:20 1023 30.21 852 25.16 -29.2 -20.6 63 -34.1 -29.4
03:25 1023 30.21 852 25.16 -29.5 -21.1 63 -34.4 -29.9
03:30 1023 30.21 852 25.16 -29.5 -21 61 -34.7 -30.4
03:35 1023 30.21 852 25.16 -29.6 -21.3 63 -34.6 -30.3
03:40 1023 30.21 852 25.16 -29.8 -21.6 63 -34.8 -30.6
03:45 1023 30.21 852 25.16 -29.8 -21.6 63 -34.7 -30.5
03:50 1023 30.21 852 25.16 -29.9 -21.9 64 -34.7 -30.5
03:55 1023 30.21 852 25.16 -30 -21.9 64 -34.8 -30.6
04:00 1023 30.21 852 25.16 -29.9 -21.8 63 -34.8 -30.6
04:05 1023 30.21 852 25.16 -29.8 -21.6 64 -34.6 -30.3
04:10 1022 30.18 852 25.16 -29.7 -21.5 64 -34.5 -30.1
04:15 1022 30.18 852 25.16 -29.8 -21.6 64 -34.6 -30.2
04:20 1022 30.18 852 25.16 -29.9 -21.8 64 -34.7 -30.5
04:25 1022 30.18 851 25.13 -30 -22 63 -34.9 -30.8
04:30 1022 30.18 851 25.13 -30.1 -22.1 64 -34.9 -30.7
04:35 1022 30.18 851 25.13 -30.1 -22.3 65 -34.8 -30.6
04:40 1022 30.18 851 25.13 -30.1 -22.2 64 -34.9 -30.8
04:45 1022 30.18 851 25.13 -30.2 -22.3 64 -34.9 -30.9
04:50 1022 30.18 851 25.13 -30.3 -22.6 64 -35.1 -31.2
04:55 1022 30.18 851 25.13 -30.3 -22.5 64 -35 -31
05:00 1022 30.18 851 25.13 -30.1 -22.2 64 -34.9 -30.9
05:05 1022 30.18 851 25.13 -29.9 -21.9 63 -35 -30.9
05:10 1022 30.18 851 25.13 -30 -21.9 63 -35 -30.9
05:15 1022 30.18 851 25.13 -29.8 -21.7 63 -34.8 -30.6
05:20 1022 30.18 851 25.13 -29.7 -21.4 63 -34.5 -30.2
05:25 1022 30.18 851 25.13 -29.6 -21.4 63 -34.6 -30.4
05:30 1022 30.18 851 25.13 -29.9 -21.8 61 -35.1 -31.2
05:35 1022 30.18 851 25.13 -29.7 -21.4 61 -35 -31.1
05:40 1022 30.18 851 25.13 -29.5 -21.1 60 -35.1 -31.1
05:45 1022 30.18 851 25.13 -29.5 -21.1 59 -35.1 -31.2
05:50 1022 30.18 851 25.13 -29.6 -21.3 62 -34.6 -30.4
05:55 1022 30.18 851 25.13 -30 -21.9 62 -35.1 -31.2
06:00 1022 30.18 851 25.13 -30.2 -22.3 62 -35.3 -31.6
06:05 1022 30.18 851 25.13 -30.4 -22.7 63 -35.3 -31.5
06:10 1022 30.18 851 25.13 -30.5 -22.9 64 -35.3 -31.5
06:15 1022 30.18 851 25.13 -30.5 -22.9 64 -35.2 -31.4
06:20 1022 30.18 851 25.13 -30.4 -22.7 65 -35 -30.9
06:25 1022 30.18 851 25.13 -30.3 -22.6 65 -34.9 -30.8
06:30 1022 30.18 851 25.13 -30.4 -22.6 64 -35.1 -31.2
06:35 1022 30.18 851 25.13 -30.4 -22.7 66 -34.9 -30.8
06:40 1021 30.15 851 25.13 -30.4 -22.7 64 -35.1 -31.2
06:45 1021 30.15 851 25.13 -30.5 -23 65 -35.1 -31.2
06:50 1021 30.15 851 25.13 -30.7 -23.2 65 -35.2 -31.4
06:55 1021 30.15 851 25.13 -30.7 -23.3 65 -35.3 -31.5
07:00 1021 30.15 851 25.13 -30.7 -23.2 65 -35.3 -31.6
07:05 1021 30.15 851 25.13 -30.7 -23.3 65 -35.2 -31.4
07:10 1021 30.15 850 25.1 -30.6 -23.1 65 -35.2 -31.3
07:15 1021 30.15 850 25.1 -30.4 -22.8 65 -35.1 -31.2
07:20 1021 30.15 850 25.1 -30.5 -23 66 -35 -31
07:25 1021 30.15 850 25.1 -30.5 -22.9 65 -35.1 -31.1
07:30 1021 30.15 850 25.1 -30.5 -22.9 66 -35 -30.9
07:35 1021 30.15 850 25.1 -30.4 -22.7 66 -34.9 -30.8
07:40 1021 30.15 850 25.1 -30.1 -22.2 64 -34.9 -30.8
07:45 1021 30.15 850 25.1 -30.3 -22.5 64 -35 -31
07:50 1021 30.15 850 25.1 -30.1 -22.1 64 -34.8 -30.7
07:55 1021 30.15 850 25.1 -30.3 -22.6 64 -35 -31
08:00 1021 30.15 850 25.1 -30.7 -23.2 66 -35.1 -31.3
08:05 1021 30.15 850 25.1 -30.5 -22.9 64 -35.2 -31.4
08:10 1021 30.15 850 25.1 -30.5 -23 64 -35.3 -31.5
08:15 1021 30.15 850 25.1 -30.9 -23.5 65 -35.5 -31.9
08:20 1021 30.15 850 25.1 -30.9 -23.6 67 -35.2 -31.4
08:25 1021 30.15 850 25.1 -31 -23.7 66 -35.4 -31.6
08:30 1021 30.15 850 25.1 -31.1 -24 67 -35.3 -31.6
08:35 1021 30.15 850 25.1 -31.3 -24.3 67 -35.5 -31.9
08:40 1021 30.15 850 25.1 -31.4 -24.5 67 -35.6 -32.1
08:45 1021 30.15 850 25.1 -31.3 -24.4 67 -35.6 -32.1
08:50 1021 30.15 850 25.1 -31.2 -24.2 66 -35.6 -32.2
08:55 1021 30.15 850 25.1 -31.1 -24 66 -35.5 -31.9
09:00 1021 30.15 850 25.1 -31 -23.9 68 -35.2 -31.3
09:05 1021 30.15 850 25.1 -31 -23.7 66 -35.3 -31.6
09:10 1021 30.15 850 25.1 -30.6 -23 65 -35.2 -31.4
09:15 1021 30.15 850 25.1 -30.3 -22.5 64 -35.1 -31.1
09:20 1021 30.15 850 25.1 -30 -22 64 -34.8 -30.7
09:25 1021 30.15 850 25.1 -30 -21.9 64 -34.7 -30.5
09:30 1021 30.15 850 25.1 -29.5 -21 61 -34.7 -30.4
09:35 1021 30.15 850 25.1 -29 -20.2 59 -34.6 -30.3
09:40 1021 30.15 850 25.1 -29 -20.2 59 -34.7 -30.4
09:45 1021 30.15 850 25.1 -29 -20.1 59 -34.6 -30.3
09:50 1021 30.15 850 25.1 -28.8 -19.9 58 -34.6 -30.3
09:55 1021 30.15 850 25.1 -28.6 -19.4 59 -34.3 -29.7
10:00 1021 30.15 850 25.1 -28.1 -18.7 58 -34.1 -29.4
10:05 1021 30.15 850 25.1 -27.8 -18 56 -34 -29.2
10:10 1021 30.15 850 25.1 -27.2 -16.9 55 -33.7 -28.6
10:15 1021 30.15 850 25.1 -26.9 -16.4 55 -33.5 -28.3
10:20 1020 30.12 850 25.1 -26.8 -16.3 52 -34 -29.2
10:25 1020 30.12 850 25.1 -26.4 -15.5 51 -33.7 -28.6
10:30 1020 30.12 850 25.1 -26 -14.9 50 -33.5 -28.4
10:35 1020 30.12 850 25.1 -25.8 -14.4 50 -33.4 -28.1
10:40 1020 30.12 849 25.07 -25.8 -14.5 51 -33.1 -27.7
10:45 1020 30.12 849 25.07 -25.4 -13.8 50 -33.1 -27.6
10:50 1020 30.12 849 25.07 -25.5 -13.9 53 -32.4 -26.3
10:55 1020 30.12 849 25.07 -24.7 -12.4 50 -32.3 -26.1
11:00 1020 30.12 849 25.07 -24.1 -11.5 50 -31.8 -25.3
11:05 1020 30.12 849 25.07 -24.2 -11.5 54 -31.1 -24
11:10 1020 30.12 849 25.07 -23.9 -11 51 -31.3 -24.3
11:15 1020 30.12 849 25.07 -24 -11.1 52 -31.3 -24.3
11:20 1020 30.12 849 25.07 -23.6 -10.6 53 -30.7 -23.2
11:25 1020 30.12 849 25.07 -23.7 -10.7 50 -31.4 -24.6
11:30 1020 30.12 849 25.07 -24.2 -11.5 52 -31.5 -24.7
11:35 1020 30.12 849 25.07 -24.1 -11.4 51 -31.6 -24.9
11:40 1020 30.12 849 25.07 -23.7 -10.6 50 -31.3 -24.4
11:45 1020 30.12 849 25.07 -23.5 -10.2 49 -31.3 -24.4
11:50 1020 30.12 849 25.07 -23.4 -10.1 47 -31.7 -25.1
11:55 1020 30.12 849 25.07 -24 -11.3 54 -31 -23.8
12:00 1020 30.12 849 25.07 -23.7 -10.7 50 -31.4 -24.5
12:05 1020 30.12 849 25.07 -22.9 -9.3 48 -31.2 -24.2
12:10 1020 30.12 849 25.07 -23.8 -10.9 53 -30.9 -23.6
12:15 1020 30.12 849 25.07 -24 -11.2 51 -31.5 -24.7
12:20 1020 30.12 849 25.07 -24 -11.1 51 -31.4 -24.5
12:25 1020 30.12 849 25.07 -23.8 -10.9 52 -31.1 -24
12:30 1020 30.12 849 25.07 -23.5 -10.2 51 -31 -23.8
12:35 1020 30.12 849 25.07 -23.5 -10.2 51 -30.9 -23.7
12:40 1020 30.12 849 25.07 -23.1 -9.6 50 -30.9 -23.6
12:45 1020 30.12 849 25.07 -23.1 -9.5 48 -31.2 -24.1
12:50 1020 30.12 849 25.07 -23.5 -10.3 52 -30.9 -23.6
12:55 1019 30.09 849 25.07 -23.4 -10.1 52 -30.7 -23.3
13:00 1019 30.09 848 25.04 -23 -9.4 51 -30.5 -23
13:05 1019 30.09 848 25.04 -22.7 -8.9 51 -30.2 -22.4
13:10 1019 30.09 848 25.04 -22.9 -9.3 52 -30.4 -22.7
13:15 1019 30.09 848 25.04 -22 -7.6 47 -30.6 -23.1
13:20 1019 30.09 848 25.04 -22.3 -8.2 47 -30.7 -23.3
13:25 1019 30.09 848 25.04 -23.1 -9.5 54 -29.9 -21.9
13:30 1019 30.09 848 25.04 -22.9 -9.2 51 -30.5 -22.9
13:35 1019 30.09 848 25.04 -22.8 -9.1 51 -30.4 -22.8
13:40 1019 30.09 848 25.04 -22.8 -9 52 -30.2 -22.3
13:45 1018 30.06 848 25.04 -22.4 -8.3 51 -30 -22
13:50 1018 30.06 848 25.04 -22.1 -7.7 48 -30.4 -22.7
13:55 1018 30.06 848 25.04 -22.1 -7.9 48 -30.3 -22.6
14:00 1018 30.06 847 25.01 -21.8 -7.2 49 -29.9 -21.8
14:05 1018 30.06 847 25.01 -21.9 -7.4 48 -30.1 -22.2
14:10 1018 30.06 847 25.01 -22.3 -8.1 48 -30.4 -22.8
14:15 1018 30.06 847 25.01 -22.5 -8.5 50 -30.2 -22.4
14:20 1018 30.06 847 25.01 -21.5 -6.8 47 -30 -22
14:25 1018 30.06 847 25.01 -21.5 -6.7 49 -29.6 -21.3
14:30 1018 30.06 847 25.01 -21.2 -6.2 47 -29.8 -21.6
14:35 1018 30.06 847 25.01 -21.2 -6.1 48 -29.5 -21.1
14:40 1018 30.06 847 25.01 -21.6 -6.9 48 -29.9 -21.8
14:45 1018 30.06 847 25.01 -22.2 -7.9 48 -30.3 -22.6
14:50 1017 30.03 847 25.01 -21.5 -6.6 46 -30.3 -22.6
14:55 1017 30.03 846 24.98 -21.1 -6 46 -29.9 -21.8
15:00 1017 30.03 846 24.98 -21.5 -6.7 48 -29.9 -21.8
15:05 1017 30.03 846 24.98 -22.5 -8.4 54 -29.5 -21.1
15:10 1017 30.03 846 24.98 -21.8 -7.2 47 -30.3 -22.5
15:15 1017 30.03 846 24.98 -22.1 -7.7 51 -29.7 -21.5
15:20 1017 30.03 846 24.98 -22.4 -8.3 50 -30.2 -22.4
15:25 1017 30.03 846 24.98 -22.4 -8.3 52 -29.8 -21.7
15:30 1017 30.03 846 24.98 -20.9 -5.7 46 -29.7 -21.5
15:35 1017 30.03 846 24.98 -21 -5.7 48 -29.3 -20.7
15:40 1017 30.03 846 24.98 -21.4 -6.5 49 -29.5 -21.1
15:45 1017 30.03 846 24.98 -21.2 -6.1 47 -29.6 -21.3
15:50 1017 30.03 846 24.98 -21.4 -6.6 51 -29.1 -20.3
15:55 1017 30.03 846 24.98 -21.6 -6.9 50 -29.4 -20.9
16:00 1016 30 846 24.98 -21.2 -6.2 49 -29.2 -20.6
16:05 1016 30 846 24.98 -20.8 -5.5 46 -29.6 -21.3
16:10 1016 30 846 24.98 -21.1 -5.9 49 -29.1 -20.4
16:15 1016 30 846 24.98 -20.6 -5.1 46 -29.3 -20.7
16:20 1016 30 845 24.95 -20.7 -5.3 46 -29.4 -21
16:25 1016 30 845 24.95 -20.7 -5.3 47 -29.3 -20.8
16:30 1016 30 845 24.95 -20.8 -5.4 46 -29.6 -21.2
16:35 1016 30 845 24.95 -20.8 -5.5 46 -29.7 -21.5
16:40 1016 30 845 24.95 -20.4 -4.8 46 -29.3 -20.8
16:45 1016 30 845 24.95 -20.5 -4.9 45 -29.5 -21.1
16:50 1016 30 845 24.95 -20.8 -5.4 46 -29.5 -21.1
16:55 1016 30 845 24.95 -20.9 -5.7 48 -29.3 -20.7
17:00 1016 30 845 24.95 -20.5 -4.8 45 -29.5 -21.1
17:05 1016 30 845 24.95 -20.8 -5.4 46 -29.6 -21.2
17:10 1016 30 845 24.95 -21.2 -6.2 49 -29.3 -20.7
17:15 1016 30 845 24.95 -21.5 -6.6 49 -29.5 -21.1
17:20 1016 30 845 24.95 -21.4 -6.5 47 -29.9 -21.8
17:25 1016 30 845 24.95 -22.5 -8.5 53 -29.7 -21.4
17:30 1016 30 845 24.95 -21.9 -7.4 49 -30 -21.9
17:35 1016 30 845 24.95 -22.2 -8 51 -29.8 -21.6
17:40 1015 29.97 845 24.95 -22.8 -9.1 54 -29.7 -21.5
17:45 1015 29.97 845 24.95 -22.7 -8.8 52 -29.9 -21.9
17:50 1015 29.97 845 24.95 -22.8 -9.1 54 -29.8 -21.7
17:55 1015 29.97 845 24.95 -22.4 -8.3 52 -29.9 -21.7
18:00 1015 29.97 844 24.92 -22.8 -9.1 51 -30.3 -22.5
18:05 1015 29.97 844 24.92 -23.4 -10.2 54 -30.3 -22.5
18:10 1015 29.97 844 24.92 -23.5 -10.3 54 -30.3 -22.6
18:15 1015 29.97 844 24.92 -23.5 -10.4 55 -30.3 -22.5
18:20 1015 29.97 844 24.92 -23.8 -10.9 56 -30.3 -22.6
18:25 1015 29.97 844 24.92 -24.3 -11.8 58 -30.3 -22.6
18:30 1015 29.97 844 24.92 -24.3 -11.8 59 -30.3 -22.5
18:35 1015 29.97 844 24.92 -24.6 -12.2 60 -30.2 -22.4
18:40 1015 29.97 844 24.92 -24.8 -12.7 60 -30.4 -22.8
18:45 1015 29.97 844 24.92 -25 -13 62 -30.3 -22.6
18:50 1015 29.97 844 24.92 -25.3 -13.5 62 -30.5 -22.9
18:55 1015 29.97 844 24.92 -25.5 -13.8 63 -30.5 -23
19:00 1015 29.97 844 24.92 -25.5 -13.9 64 -30.4 -22.8
19:05 1015 29.97 844 24.92 -25.5 -13.9 63 -30.6 -23
19:10 1014 29.94 844 24.92 -25.5 -14 66 -30.2 -22.3
19:15 1014 29.94 844 24.92 -25.4 -13.8 67 -29.9 -21.8
19:20 1014 29.94 844 24.92 -25.4 -13.8 68 -29.8 -21.6
19:25 1014 29.94 844 24.92 -25.5 -13.8 67 -29.9 -21.8
19:30 1014 29.94 844 24.92 -25.4 -13.6 67 -29.8 -21.7
19:35 1014 29.94 843 24.89 -25.2 -13.3 67 -29.6 -21.4
19:40 1014 29.94 843 24.89 -25.2 -13.4 69 -29.4 -21
19:45 1014 29.94 843 24.89 -25.3 -13.5 68 -29.6 -21.3
19:50 1014 29.94 843 24.89 -25.5 -13.9 68 -29.8 -21.7
19:55 1014 29.94 843 24.89 -25.6 -14 69 -29.6 -21.3
20:00 1014 29.94 843 24.89 -25.7 -14.2 69 -29.8 -21.7
20:05 1014 29.94 843 24.89 -25.8 -14.5 69 -29.9 -21.9
20:10 1014 29.94 843 24.89 -25.8 -14.4 67 -30.2 -22.3
20:15 1014 29.94 843 24.89 -25.8 -14.5 68 -30.2 -22.3
20:20 1014 29.94 843 24.89 -25.9 -14.7 70 -30 -21.9
20:25 1014 29.94 843 24.89 -25.9 -14.6 69 -30.1 -22.1
20:30 1014 29.94 843 24.89 -25.9 -14.5 68 -30.2 -22.4
20:35 1014 29.94 843 24.89 -25.9 -14.7 68 -30.2 -22.4
20:40 1014 29.94 843 24.89 -26 -14.9 67 -30.4 -22.7
20:45 1014 29.94 843 24.89 -26.1 -15 69 -30.3 -22.5
20:50 1014 29.94 843 24.89 -26.2 -15.1 67 -30.5 -23
20:55 1014 29.94 843 24.89 -26.6 -15.9 67 -31 -23.8
21:00 1014 29.94 843 24.89 -27.2 -17 70 -31.1 -23.9
21:05 1014 29.94 843 24.89 -27.5 -17.5 72 -31.1 -24.1
21:10 1013 29.91 843 24.89 -27.6 -17.6 70 -31.4 -24.5
21:15 1013 29.91 843 24.89 -27.1 -16.8 69 -31.2 -24.2
21:20 1013 29.91 843 24.89 -27.2 -17 69 -31.3 -24.3
21:25 1013 29.91 842 24.86 -27.5 -17.4 70 -31.4 -24.6
21:30 1013 29.91 842 24.86 -27.6 -17.8 70 -31.5 -24.8
21:35 1013 29.91 842 24.86 -27.4 -17.3 69 -31.4 -24.6
21:40 1013 29.91 842 24.86 -27.2 -16.9 69 -31.3 -24.4
21:45 1013 29.91 842 24.86 -27 -16.6 68 -31.3 -24.4
21:50 1013 29.91 842 24.86 -26.9 -16.4 67 -31.3 -24.3
21:55 1013 29.91 842 24.86 -26.9 -16.5 68 -31.2 -24.1
22:00 1013 29.91 842 24.86 -26.9 -16.5 68 -31.1 -24
22:05 1013 29.91 842 24.86 -27 -16.5 68 -31.2 -24.2
22:10 1013 29.91 842 24.86 -27.2 -16.9 69 -31.3 -24.4
22:15 1013 29.91 842 24.86 -27.2 -17 68 -31.4 -24.6
22:20 1013 29.91 842 24.86 -27.2 -17 68 -31.4 -24.6
22:25 1013 29.91 842 24.86 -27.4 -17.3 68 -31.6 -24.9
22:30 1013 29.91 842 24.86 -27.8 -18 69 -31.8 -25.3
22:35 1013 29.91 842 24.86 -28.1 -18.5 71 -31.9 -25.4
22:40 1013 29.91 842 24.86 -28 -18.4 71 -31.7 -25.1
22:45 1013 29.91 842 24.86 -27.9 -18.2 72 -31.5 -24.7
22:50 1013 29.91 842 24.86 -27.7 -17.9 72 -31.3 -24.4
22:55 1013 29.91 842 24.86 -27.6 -17.6 71 -31.3 -24.4
23:00 1013 29.91 842 24.86 -27.5 -17.5 71 -31.2 -24.2
23:05 1013 29.91 842 24.86 -27.4 -17.4 71 -31.2 -24.2
23:10 1012 29.88 842 24.86 -27.4 -17.3 70 -31.4 -24.5
23:15 1012 29.88 842 24.86 -27.5 -17.5 73 -31 -23.8
23:20 1012 29.88 842 24.86 -27.4 -17.3 70 -31.3 -24.3
23:25 1012 29.88 841 24.83 -27.4 -17.4 70 -31.3 -24.3
23:30 1012 29.88 841 24.83 -27.4 -17.3 71 -31.1 -23.9
23:35 1012 29.88 841 24.83 -27.5 -17.5 74 -30.8 -23.4
23:40 1012 29.88 841 24.83 -27.4 -17.4 71 -31.2 -24.2
23:45 1012 29.88 841 24.83 -27.5 -17.4 71 -31.3 -24.3
23:50 1012 29.88 841 24.83 -27.4 -17.2 69 -31.4 -24.5
23:55 1012 29.88 841 24.83 -27.4 -17.4 70 -31.4 -24.5
24:00 1012 29.88 841 24.83 -27.2 -16.9 68 -31.4 -24.5